الصفحة الرئيسية
METAR-TAF:

METAR-TAF

مطار :

مطار انجمينا الدولي

انجمينا, تشاد

دائرة عرض: 12-08N, خط طول: 015-02E, ارتفاع: 295 متر

مراقبة الطقس الحالي

تاريخ ووقت الإصدار 36 دقيقة قبل الساعة 00:00UTC
ريح 3 عقدة من الجنوب/الجنوب الشرقي
درجة الحرارة 26°درجة مئوية
الرطوبة 84%
ضغط 1013 hPa
الرؤية 10 كم أو أكثر
الغيوم لا تقل 1500 م ولا وجود لمزنة ركامية السحاب الأسود

METAR: FTTJ 160000Z 15003KT CAVOK 26/23 Q1013 NOSIG

زمن: 01:36 (00:36 UTC)

توقعات

تاريخ ووقت الإصدار 1ساعة و 36 دقيقة قبل الساعة 23:00UTC
التوقعات صالحة من16 الساعة 00 UTC إلى 17 الساعة 06 UTC
ريح 6 عقدة من الجنوب
الرؤية 10 كم أو أكثر
الغيوم لا تقل 1500 م ولا وجود لمزنة ركامية السحاب الأسود
مؤقت
من 16 الساعة 10 UTC إلى 16 الساعة 16 UTC
الرؤية: 4000 متر
عاصفة رعدية, مطر
نظرية الاحتمالات 40% :
مؤقت
من 17 الساعة 00 UTC إلى 17 الساعة 06 UTC
الرؤية: 3000 متر
عاصفة رعدية, مطر

TAF: FTTJ 152300Z 1600/1706 18006KT CAVOK TEMPO 1610/1616 4000 TSRA PROB40 TEMPO 1700/1706 3000 TSRA

أرصاد الطقس والتوقعات من أكثر من 4000 مطار (تقارير الطقس للمطار METAR والتنبؤ بالطقس بالمطارTAF).

المحطات المتاحة هي النقط الصفراء والحمراء على الخريطة.

حرك المؤشر فوق النقطة لمعرفة اسم المحطة.

ثم انقر لمعرفة أرصاد وتوقعات الطقس.

لتغيير الخارطة: اضغط على الأزرار الخضراء مع رمز الصليب الأسود للتكبير. على الزر الأخضر مع شرطة للتصغير، أو على الأسهم الخضراء للخرائط المجاورة.


METAR-TAF: